Wetterdaten: Woche 01.10.01 - 07.10.01 (KW40)
Datum Zeit Temperatur Luftfeuchte Luftdruck Regenmenge Wind Richtung Taupunkt Windchill
01.10.2001 00:00 11.0 C 92 % 1007.8 hPa 0.0 l/m 0.2 km/h (0 Bft) N 9.8 C 11.0 C
01.10.2001 01:00 11.2 C 93 % 1007.8 hPa 0.0 l/m 1.9 km/h (1 Bft) O 10.1 C 11.2 C
01.10.2001 02:00 11.1 C 93 % 1007.8 hPa 0.0 l/m 2.6 km/h (1 Bft) O 10.0 C 11.1 C
01.10.2001 03:00 11.4 C 93 % 1007.8 hPa 0.0 l/m 0.0 km/h (0 Bft) N 10.3 C 11.4 C
01.10.2001 04:00 11.2 C 92 % 1007.4 hPa 0.0 l/m 0.6 km/h (0 Bft) O 10.0 C 11.2 C
01.10.2001 05:00 11.3 C 92 % 1007.1 hPa 0.0 l/m 0.9 km/h (0 Bft) O-SO 10.1 C 11.3 C
01.10.2001 06:00 11.3 C 92 % 1006.8 hPa 0.0 l/m 0.0 km/h (0 Bft) N 10.0 C 11.3 C
01.10.2001 07:00 11.5 C 91 % 1007.8 hPa 0.0 l/m 0.0 km/h (0 Bft) N 10.1 C 11.5 C
01.10.2001 08:00 11.8 C 91 % 1007.8 hPa 0.0 l/m 3.2 km/h (1 Bft) O-SO 10.4 C 11.8 C
01.10.2001 09:00 12.5 C 91 % 1007.8 hPa 0.0 l/m 0.1 km/h (0 Bft) N 11.0 C 12.5 C
01.10.2001 10:00 13.4 C 88 % 1007.9 hPa 0.0 l/m 1.6 km/h (1 Bft) O-SO 11.5 C 13.4 C
01.10.2001 11:00 15.0 C 81 % 1007.8 hPa 0.0 l/m 4.5 km/h (1 Bft) O-SO 11.7 C 15.0 C
01.10.2001 12:00 17.3 C 72 % 1007.8 hPa 0.0 l/m 5.9 km/h (2 Bft) O-SO 12.3 C 17.3 C
01.10.2001 13:00 19.5 C 64 % 1007.2 hPa 0.0 l/m 5.2 km/h (1 Bft) W-SW 12.4 C 19.5 C
01.10.2001 14:00 20.3 C 63 % 1006.6 hPa 0.0 l/m 0.8 km/h (0 Bft) O-NO 13.0 C 20.3 C
01.10.2001 15:00 20.7 C 64 % 1005.9 hPa 0.0 l/m 0.8 km/h (0 Bft) W-NW 13.5 C 20.7 C
01.10.2001 16:00 20.9 C 63 % 1005.7 hPa 0.0 l/m 0.0 km/h (0 Bft) N 13.6 C 20.9 C
01.10.2001 17:00 21.3 C 63 % 1005.7 hPa 0.0 l/m 0.0 km/h (0 Bft) N 14.1 C 21.3 C
01.10.2001 18:00 19.3 C 75 % 1005.7 hPa 0.0 l/m 0.3 km/h (0 Bft) O-SO 14.8 C 19.3 C
01.10.2001 19:00 17.6 C 84 % 1006.3 hPa 0.0 l/m 0.0 km/h (0 Bft) N 14.9 C 17.6 C
01.10.2001 20:00 16.8 C 86 % 1006.7 hPa 0.0 l/m 4.1 km/h (1 Bft) O-SO 14.5 C 16.8 C
01.10.2001 21:00 16.5 C 87 % 1006.7 hPa 0.0 l/m 0.0 km/h (0 Bft) N 14.4 C 16.5 C
01.10.2001 22:00 16.0 C 89 % 1007.4 hPa 0.0 l/m 1.3 km/h (1 Bft) O-SO 14.1 C 16.0 C
01.10.2001 23:00 15.9 C 89 % 1007.8 hPa 0.0 l/m 0.0 km/h (0 Bft) N 14.1 C 15.9 C
02.10.2001 00:00 15.9 C 89 % 1008.0 hPa 0.0 l/m 0.3 km/h (0 Bft) O-SO 14.1 C 15.9 C
02.10.2001 01:00 16.1 C 87 % 1008.8 hPa 0.0 l/m 4.1 km/h (1 Bft) O-SO 13.8 C 16.1 C
02.10.2001 02:00 17.0 C 78 % 1008.8 hPa 0.0 l/m 5.2 km/h (1 Bft) O-SO 13.1 C 17.0 C
02.10.2001 03:00 16.4 C 79 % 1008.5 hPa 0.0 l/m 3.3 km/h (1 Bft) O-SO 12.7 C 16.4 C
02.10.2001 04:00 15.3 C 84 % 1007.8 hPa 0.0 l/m 2.6 km/h (1 Bft) O 12.6 C 15.3 C
02.10.2001 05:00 14.2 C 88 % 1007.8 hPa 0.0 l/m 0.0 km/h (0 Bft) N 12.2 C 14.2 C
02.10.2001 06:00 13.5 C 90 % 1007.8 hPa 0.0 l/m 0.0 km/h (0 Bft) N 11.9 C 13.5 C
02.10.2001 07:00 13.2 C 91 % 1007.8 hPa 0.0 l/m 1.2 km/h (1 Bft) O 11.7 C 13.2 C
02.10.2001 08:00 13.5 C 91 % 1007.8 hPa 0.0 l/m 0.0 km/h (0 Bft) N 12.1 C 13.5 C
02.10.2001 09:00 16.0 C 84 % 1007.8 hPa 0.0 l/m 1.4 km/h (1 Bft) O-SO 13.2 C 16.0 C
02.10.2001 10:00 18.2 C 74 % 1007.8 hPa 0.0 l/m 2.9 km/h (1 Bft) O-SO 13.4 C 18.2 C
02.10.2001 11:00 19.9 C 65 % 1007.3 hPa 0.0 l/m 9.5 km/h (2 Bft) SO 13.1 C 19.9 C
02.10.2001 12:00 21.6 C 58 % 1006.7 hPa 0.0 l/m 7.4 km/h (2 Bft) O-SO 12.9 C 21.6 C
02.10.2001 13:00 23.0 C 53 % 1006.7 hPa 0.0 l/m 14.0 km/h (3 Bft) O-SO 13.0 C 23.0 C
02.10.2001 14:00 24.2 C 48 % 1005.7 hPa 0.0 l/m 11.1 km/h (2 Bft) SO 12.4 C 24.2 C
02.10.2001 15:00 25.1 C 45 % 1005.7 hPa 0.0 l/m 10.0 km/h (2 Bft) S 12.4 C 25.1 C
02.10.2001 16:00 25.2 C 46 % 1005.0 hPa 0.0 l/m 8.2 km/h (2 Bft) O-SO 12.8 C 25.2 C
02.10.2001 17:00 24.1 C 49 % 1004.7 hPa 0.0 l/m 8.3 km/h (2 Bft) O-SO 12.8 C 24.1 C
02.10.2001 18:00 22.2 C 55 % 1004.7 hPa 0.0 l/m 7.9 km/h (2 Bft) O-SO 12.7 C 22.2 C
02.10.2001 19:00 19.5 C 66 % 1004.7 hPa 0.0 l/m 4.1 km/h (1 Bft) O-SO 12.9 C 19.5 C
02.10.2001 20:00 17.5 C 76 % 1005.4 hPa 0.0 l/m 0.8 km/h (0 Bft) O 13.2 C 17.5 C
02.10.2001 21:00 16.2 C 82 % 1005.7 hPa 0.0 l/m 0.0 km/h (0 Bft) NO 13.1 C 16.2 C
02.10.2001 22:00 14.6 C 87 % 1006.3 hPa 0.0 l/m 1.2 km/h (1 Bft) O 12.4 C 14.6 C
02.10.2001 23:00 13.4 C 90 % 1006.7 hPa 0.0 l/m 0.3 km/h (0 Bft) O 11.8 C 13.4 C
03.10.2001 00:00 12.6 C 91 % 1006.7 hPa 0.0 l/m 0.0 km/h (0 Bft) N 11.2 C 12.6 C
03.10.2001 01:00 12.1 C 93 % 1006.7 hPa 0.0 l/m 0.0 km/h (0 Bft) N 10.9 C 12.1 C
03.10.2001 02:00 11.4 C 93 % 1006.4 hPa 0.0 l/m 0.2 km/h (0 Bft) O 10.4 C 11.4 C
03.10.2001 03:00 11.4 C 94 % 1005.7 hPa 0.0 l/m 2.1 km/h (1 Bft) O 10.5 C 11.4 C
03.10.2001 04:00 11.2 C 95 % 1005.7 hPa 0.0 l/m 0.0 km/h (0 Bft) N 10.4 C 11.2 C
03.10.2001 05:00 11.6 C 95 % 1005.7 hPa 0.0 l/m 0.3 km/h (0 Bft) O 10.9 C 11.6 C
03.10.2001 06:00 11.4 C 95 % 1005.7 hPa 0.0 l/m 0.4 km/h (0 Bft) O-SO 10.7 C 11.4 C
03.10.2001 07:00 11.1 C 96 % 1006.4 hPa 0.0 l/m 1.7 km/h (1 Bft) O-SO 10.5 C 11.1 C
03.10.2001 08:00 11.2 C 96 % 1006.7 hPa 0.0 l/m 3.5 km/h (1 Bft) O-SO 10.6 C 11.2 C
03.10.2001 09:00 13.1 C 94 % 1006.7 hPa 0.0 l/m 0.1 km/h (0 Bft) N 12.1 C 13.1 C
03.10.2001 10:00 15.8 C 84 % 1006.7 hPa 0.0 l/m 0.0 km/h (0 Bft) N 13.1 C 15.8 C
03.10.2001 11:00 17.4 C 74 % 1006.7 hPa 0.0 l/m 0.3 km/h (0 Bft) NO 12.8 C 17.4 C
03.10.2001 12:00 19.1 C 67 % 1006.7 hPa 0.0 l/m 5.9 km/h (2 Bft) O-SO 12.9 C 19.1 C
03.10.2001 13:00 19.9 C 65 % 1006.6 hPa 0.0 l/m 2.7 km/h (1 Bft) O 13.0 C 19.9 C
03.10.2001 14:00 21.2 C 59 % 1005.7 hPa 0.0 l/m 2.0 km/h (1 Bft) O 12.8 C 21.2 C
03.10.2001 15:00 21.9 C 56 % 1004.8 hPa 0.0 l/m 1.7 km/h (1 Bft) W 12.8 C 21.9 C
03.10.2001 16:00 21.7 C 61 % 1004.7 hPa 0.0 l/m 0.3 km/h (0 Bft) NW 13.8 C 21.7 C
03.10.2001 17:00 20.7 C 66 % 1004.5 hPa 0.0 l/m 1.0 km/h (0 Bft) W 14.0 C 20.7 C
03.10.2001 18:00 19.4 C 70 % 1004.7 hPa 0.0 l/m 2.5 km/h (1 Bft) W-NW 13.8 C 19.4 C
03.10.2001 19:00 18.3 C 71 % 1004.7 hPa 0.0 l/m 0.2 km/h (0 Bft) N 13.1 C 18.3 C
03.10.2001 20:00 16.9 C 79 % 1004.7 hPa 0.0 l/m 0.0 km/h (0 Bft) N 13.3 C 16.9 C
03.10.2001 21:00 16.1 C 84 % 1004.7 hPa 0.0 l/m 2.6 km/h (1 Bft) O-SO 13.4 C 16.1 C
03.10.2001 22:00 15.6 C 87 % 1004.7 hPa 0.0 l/m 1.2 km/h (1 Bft) O-SO 13.4 C 15.6 C
03.10.2001 23:00 15.2 C 88 % 1005.8 hPa 2.8 l/m 19.8 km/h (4 Bft) W-NW 13.2 C 15.2 C
04.10.2001 00:00 13.3 C 90 % 1007.5 hPa 3.1 l/m 15.7 km/h (3 Bft) W-NW 11.7 C 13.3 C
04.10.2001 01:00 13.0 C 92 % 1008.5 hPa 1.3 l/m 13.8 km/h (3 Bft) W-NW 11.7 C 13.0 C
04.10.2001 02:00 12.7 C 93 % 1009.8 hPa 1.3 l/m 1.2 km/h (1 Bft) O-SO 11.5 C 12.7 C
04.10.2001 03:00 12.1 C 94 % 1009.9 hPa 1.9 l/m 4.3 km/h (1 Bft) O-SO 11.1 C 12.1 C
04.10.2001 04:00 12.1 C 94 % 1009.4 hPa 0.9 l/m 0.4 km/h (0 Bft) O 11.2 C 12.1 C
04.10.2001 05:00 11.8 C 94 % 1008.8 hPa 0.0 l/m 0.4 km/h (0 Bft) O-SO 10.9 C 11.8 C
04.10.2001 06:00 11.4 C 94 % 1008.8 hPa 0.3 l/m 0.0 km/h (0 Bft) N 10.4 C 11.4 C
04.10.2001 07:00 11.8 C 95 % 1009.7 hPa 0.0 l/m 0.1 km/h (0 Bft) N 10.9 C 11.8 C
04.10.2001 08:00 12.0 C 94 % 1009.9 hPa 0.0 l/m 2.2 km/h (1 Bft) W 11.1 C 12.0 C
04.10.2001 09:00 12.5 C 91 % 1010.7 hPa 0.0 l/m 3.0 km/h (1 Bft) W 11.0 C 12.5 C
04.10.2001 10:00 13.3 C 84 % 1010.9 hPa 0.0 l/m 5.5 km/h (1 Bft) W 10.6 C 13.3 C
04.10.2001 11:00 14.6 C 72 % 1010.9 hPa 0.0 l/m 7.5 km/h (2 Bft) W-NW 9.6 C 14.6 C
04.10.2001 12:00 14.7 C 72 % 1010.9 hPa 0.0 l/m 4.7 km/h (1 Bft) W 9.7 C 14.7 C
04.10.2001 13:00 16.0 C 65 % 1010.7 hPa 0.0 l/m 4.5 km/h (1 Bft) W-NW 9.3 C 16.0 C
04.10.2001 14:00 17.4 C 59 % 1009.9 hPa 0.0 l/m 4.7 km/h (1 Bft) W 9.3 C 17.4 C
04.10.2001 15:00 18.1 C 54 % 1009.3 hPa 0.0 l/m 3.8 km/h (1 Bft) W 8.6 C 18.1 C
04.10.2001 16:00 18.2 C 52 % 1008.8 hPa 0.0 l/m 1.7 km/h (1 Bft) W-SW 8.3 C 18.2 C
04.10.2001 17:00 17.1 C 54 % 1008.8 hPa 0.0 l/m 0.9 km/h (0 Bft) W-SW 7.6 C 17.1 C
04.10.2001 18:00 15.1 C 65 % 1008.0 hPa 0.0 l/m 2.1 km/h (1 Bft) O-SO 8.5 C 15.1 C
04.10.2001 19:00 12.5 C 80 % 1008.1 hPa 0.0 l/m 0.8 km/h (0 Bft) O 9.2 C 12.5 C
04.10.2001 20:00 11.0 C 86 % 1008.5 hPa 0.0 l/m 0.1 km/h (0 Bft) N 8.8 C 11.0 C
04.10.2001 21:00 9.9 C 90 % 1007.8 hPa 0.0 l/m 0.0 km/h (0 Bft) N 8.3 C 9.9 C
04.10.2001 22:00 9.3 C 91 % 1007.8 hPa 0.0 l/m 0.6 km/h (0 Bft) O 8.0 C 9.3 C
04.10.2001 23:00 9.4 C 92 % 1007.8 hPa 0.0 l/m 0.0 km/h (0 Bft) N 8.1 C 9.4 C
05.10.2001 00:00 8.3 C 92 % 1007.0 hPa 0.0 l/m 0.0 km/h (0 Bft) N 7.1 C 8.3 C
05.10.2001 01:00 7.9 C 94 % 1006.7 hPa 0.0 l/m 0.0 km/h (0 Bft) N 6.9 C 7.9 C
05.10.2001 02:00 7.8 C 94 % 1006.7 hPa 0.0 l/m 2.9 km/h (1 Bft) O-SO 6.8 C 7.5 C
05.10.2001 03:00 7.8 C 95 % 1006.8 hPa 0.0 l/m 0.9 km/h (0 Bft) O-SO 7.0 C 7.8 C
05.10.2001 04:00 8.3 C 96 % 1006.7 hPa 0.0 l/m 0.1 km/h (0 Bft) W-NW 7.6 C 8.3 C
05.10.2001 05:00 8.4 C 96 % 1006.7 hPa 0.0 l/m 0.9 km/h (0 Bft) O-SO 7.7 C 8.3 C
05.10.2001 06:00 8.4 C 95 % 1005.9 hPa 0.0 l/m 0.3 km/h (0 Bft) N 7.7 C 8.4 C
05.10.2001 07:00 8.6 C 95 % 1005.8 hPa 0.0 l/m 0.0 km/h (0 Bft) N 7.9 C 8.6 C
05.10.2001 08:00 8.6 C 96 % 1005.7 hPa 0.0 l/m 0.2 km/h (0 Bft) W-NW 8.0 C 8.6 C
05.10.2001 09:00 9.0 C 94 % 1005.7 hPa 0.0 l/m 0.2 km/h (0 Bft) W 8.0 C 9.0 C
05.10.2001 10:00 10.2 C 89 % 1005.7 hPa 0.0 l/m 0.2 km/h (0 Bft) O-SO 8.4 C 10.2 C
05.10.2001 11:00 10.8 C 87 % 1005.9 hPa 0.0 l/m 0.6 km/h (0 Bft) O-SO 8.7 C 10.8 C
05.10.2001 12:00 11.6 C 86 % 1005.7 hPa 0.0 l/m 1.0 km/h (0 Bft) O-SO 9.2 C 11.6 C
05.10.2001 13:00 12.3 C 82 % 1005.2 hPa 0.0 l/m 0.4 km/h (0 Bft) W-NW 9.3 C 12.3 C
05.10.2001 14:00 13.9 C 76 % 1004.6 hPa 0.0 l/m 0.4 km/h (0 Bft) W 9.8 C 13.9 C
05.10.2001 15:00 14.8 C 74 % 1003.6 hPa 0.0 l/m 0.4 km/h (0 Bft) W 10.3 C 14.8 C
05.10.2001 16:00 15.4 C 74 % 1003.5 hPa 0.0 l/m 1.0 km/h (0 Bft) W 10.7 C 15.4 C
05.10.2001 17:00 14.5 C 77 % 1003.5 hPa 0.0 l/m 1.0 km/h (0 Bft) W 10.4 C 14.5 C
05.10.2001 18:00 13.0 C 85 % 1003.3 hPa 0.0 l/m 1.8 km/h (1 Bft) O-SO 10.5 C 13.0 C
05.10.2001 19:00 12.1 C 89 % 1003.6 hPa 0.0 l/m 0.0 km/h (0 Bft) N 10.3 C 12.1 C
05.10.2001 20:00 11.5 C 90 % 1003.6 hPa 0.0 l/m 1.4 km/h (1 Bft) O-SO 9.9 C 11.5 C
05.10.2001 21:00 11.5 C 91 % 1004.4 hPa 0.0 l/m 0.1 km/h (0 Bft) N 10.1 C 11.5 C
05.10.2001 22:00 10.9 C 92 % 1004.7 hPa 0.0 l/m 0.4 km/h (0 Bft) O-SO 9.5 C 10.9 C
05.10.2001 23:00 11.1 C 93 % 1004.5 hPa 0.0 l/m 0.6 km/h (0 Bft) O-SO 10.0 C 11.1 C
06.10.2001 00:00 11.3 C 94 % 1004.9 hPa 1.9 l/m 0.8 km/h (0 Bft) O-SO 10.3 C 11.3 C
06.10.2001 01:00 11.6 C 94 % 1005.2 hPa 2.2 l/m 0.2 km/h (0 Bft) O-NO 10.7 C 11.6 C
06.10.2001 02:00 11.7 C 94 % 1005.1 hPa 0.0 l/m 0.6 km/h (0 Bft) NO 10.8 C 11.7 C
06.10.2001 03:00 11.8 C 94 % 1005.7 hPa 0.0 l/m 0.7 km/h (0 Bft) O-SO 11.0 C 11.8 C
06.10.2001 04:00 12.0 C 95 % 1005.7 hPa 0.0 l/m 0.5 km/h (0 Bft) O-SO 11.2 C 12.0 C
06.10.2001 05:00 12.2 C 96 % 1005.7 hPa 0.0 l/m 0.0 km/h (0 Bft) N 11.6 C 12.2 C
06.10.2001 06:00 12.3 C 95 % 1005.7 hPa 0.0 l/m 0.0 km/h (0 Bft) N 11.5 C 12.3 C
06.10.2001 07:00 12.1 C 96 % 1005.7 hPa 0.0 l/m 0.0 km/h (0 Bft) N 11.5 C 12.1 C
06.10.2001 08:00 12.3 C 95 % 1005.7 hPa 0.3 l/m 1.2 km/h (1 Bft) O 11.6 C 12.3 C
06.10.2001 09:00 13.0 C 96 % 1006.7 hPa 0.0 l/m 0.0 km/h (0 Bft) N 12.3 C 13.0 C
06.10.2001 10:00 14.2 C 93 % 1006.7 hPa 0.0 l/m 0.0 km/h (0 Bft) N 13.1 C 14.2 C
06.10.2001 11:00 15.6 C 86 % 1006.1 hPa 0.0 l/m 0.8 km/h (0 Bft) N-NO 13.3 C 15.6 C
06.10.2001 12:00 17.3 C 78 % 1005.7 hPa 0.0 l/m 0.9 km/h (0 Bft) O 13.5 C 17.3 C
06.10.2001 13:00 18.9 C 72 % 1004.9 hPa 0.0 l/m 0.8 km/h (0 Bft) O 13.6 C 18.9 C
06.10.2001 14:00 20.2 C 66 % 1004.2 hPa 0.0 l/m 0.9 km/h (0 Bft) O-SO 13.6 C 20.2 C
06.10.2001 15:00 21.3 C 62 % 1003.5 hPa 0.0 l/m 1.2 km/h (1 Bft) W 13.7 C 21.3 C
06.10.2001 16:00 21.8 C 58 % 1002.7 hPa 0.0 l/m 2.6 km/h (1 Bft) O-SO 13.3 C 21.8 C
06.10.2001 17:00 21.0 C 64 % 1002.6 hPa 0.0 l/m 0.8 km/h (0 Bft) O-SO 14.0 C 21.0 C
06.10.2001 18:00 18.9 C 73 % 1002.6 hPa 0.0 l/m 1.5 km/h (1 Bft) O 13.9 C 18.9 C
06.10.2001 19:00 16.5 C 81 % 1002.6 hPa 0.0 l/m 0.6 km/h (0 Bft) O 13.3 C 16.5 C
06.10.2001 20:00 15.1 C 87 % 1002.6 hPa 0.0 l/m 1.1 km/h (0 Bft) O 13.0 C 15.1 C
06.10.2001 21:00 14.1 C 90 % 1002.6 hPa 0.0 l/m 1.1 km/h (0 Bft) O 12.5 C 14.1 C
06.10.2001 22:00 13.7 C 91 % 1002.6 hPa 0.0 l/m 0.0 km/h (0 Bft) N 12.3 C 13.7 C
06.10.2001 23:00 13.2 C 91 % 1002.6 hPa 0.0 l/m 0.0 km/h (0 Bft) N 11.8 C 13.2 C
07.10.2001 00:00 13.2 C 92 % 1002.6 hPa 0.0 l/m 0.4 km/h (0 Bft) O-NO 11.9 C 13.2 C
07.10.2001 01:00 13.4 C 93 % 1002.6 hPa 0.0 l/m 1.2 km/h (1 Bft) O-SO 12.3 C 13.4 C
07.10.2001 02:00 13.5 C 93 % 1002.6 hPa 0.0 l/m 1.3 km/h (1 Bft) O-SO 12.4 C 13.5 C
07.10.2001 03:00 13.5 C 93 % 1001.6 hPa 0.0 l/m 0.8 km/h (0 Bft) O-SO 12.3 C 13.5 C
07.10.2001 04:00 13.6 C 93 % 1001.6 hPa 2.8 l/m 1.2 km/h (1 Bft) O-SO 12.5 C 13.6 C
07.10.2001 05:00 13.7 C 94 % 1001.6 hPa 0.6 l/m 1.4 km/h (1 Bft) O-SO 12.8 C 13.7 C
07.10.2001 06:00 14.0 C 94 % 1001.6 hPa 0.9 l/m 2.0 km/h (1 Bft) O-SO 13.1 C 14.0 C
07.10.2001 07:00 14.3 C 94 % 1001.6 hPa 1.6 l/m 2.7 km/h (1 Bft) O-SO 13.4 C 14.3 C
07.10.2001 08:00 14.5 C 95 % 1002.2 hPa 1.9 l/m 2.4 km/h (1 Bft) O-SO 13.7 C 14.5 C
07.10.2001 09:00 14.6 C 95 % 1002.9 hPa 1.6 l/m 5.0 km/h (1 Bft) W 13.8 C 14.6 C
07.10.2001 10:00 14.3 C 92 % 1003.9 hPa 0.3 l/m 11.2 km/h (2 Bft) W 13.0 C 14.3 C
07.10.2001 11:00 14.5 C 92 % 1003.7 hPa 0.0 l/m 5.5 km/h (1 Bft) O-SO 13.2 C 14.5 C
07.10.2001 12:00 15.1 C 91 % 1003.6 hPa 0.6 l/m 8.6 km/h (2 Bft) O-SO 13.6 C 15.1 C
07.10.2001 13:00 15.5 C 91 % 1003.6 hPa 0.0 l/m 2.7 km/h (1 Bft) O-SO 14.1 C 15.5 C
07.10.2001 14:00 16.4 C 87 % 1002.6 hPa 0.0 l/m 2.0 km/h (1 Bft) O-SO 14.2 C 16.4 C
07.10.2001 15:00 16.3 C 85 % 1002.1 hPa 0.0 l/m 1.7 km/h (1 Bft) O-SO 13.8 C 16.3 C
07.10.2001 16:00 16.6 C 82 % 1001.6 hPa 0.0 l/m 2.8 km/h (1 Bft) O-SO 13.4 C 16.6 C
07.10.2001 17:00 17.1 C 73 % 1001.6 hPa 0.0 l/m 5.2 km/h (1 Bft) O-SO 12.1 C 17.1 C
07.10.2001 18:00 15.2 C 83 % 1001.0 hPa 0.0 l/m 4.4 km/h (1 Bft) O-SO 12.2 C 15.2 C
07.10.2001 19:00 13.3 C 87 % 1001.6 hPa 0.0 l/m 0.4 km/h (0 Bft) O 11.2 C 13.3 C
07.10.2001 20:00 12.4 C 91 % 1001.6 hPa 0.0 l/m 3.2 km/h (1 Bft) O-SO 10.9 C 12.4 C
07.10.2001 21:00 11.5 C 92 % 1001.6 hPa 0.0 l/m 1.3 km/h (1 Bft) O-SO 10.2 C 11.5 C
07.10.2001 22:00 10.9 C 92 % 1002.3 hPa 0.0 l/m 0.4 km/h (0 Bft) O-SO 9.7 C 10.9 C
07.10.2001 23:00 11.7 C 94 % 1002.6 hPa 0.0 l/m 0.2 km/h (0 Bft) O-SO 10.7 C 11.7 C
Min-Datum _ 05.10.01 02.10.01 07.10.01 - 01.10.01 - 05.10.01 05.10.01
_ Min-Zeit 02:08 15:32 18:04 - 00:01 - 02:08 02:50
Minimum _ 7.5 C 42 % 1000.5 hPa - 0.0 km/h (0 Bft) - 6.4 C 6.6 C
Max-Datum _ 02.10.01 03.10.01 04.10.01 04.10.01 03.10.01 - 01.10.01 02.10.01
_ Max-Zeit 16:08 05:27 09:10 00:37 23:58 - 18:52 16:08
Maximum _ 25.4 C 97 % 1010.9 hPa 3.1 l/m 42.1 km/h
W-NW (6 Bft)
- 15.5 C 25.4 C
Durchschnitt _ 14.6 C 83 % 1005.9 hPa #26.3 l/m 2.2 km/h (1 Bft) O-SO 11.5 C 14.6 C

Durchschnitt Minimum Temp.14.0 C
Durchschnitt Maximum Temp.15.3 C
© Kaiko 2001